createdAt,value
2023-03-06T00:01:05.847Z,8.65
2023-03-06T00:03:33.532Z,7.70
2023-03-06T00:06:01.328Z,8.25
2023-03-06T00:08:29.215Z,8.75
2023-03-06T00:10:57.004Z,7.45
2023-03-06T00:13:24.944Z,8.07
2023-03-06T00:15:51.753Z,9.00
2023-03-06T00:18:18.531Z,8.85
2023-03-06T00:20:45.731Z,8.77
2023-03-06T00:23:12.891Z,9.45
2023-03-06T00:25:44.301Z,9.52
2023-03-06T00:28:15.662Z,8.93
2023-03-06T00:30:42.854Z,9.15
2023-03-06T00:33:09.916Z,9.65
2023-03-06T00:35:39.562Z,9.48
2023-03-06T00:38:06.676Z,10.68
2023-03-06T00:40:33.526Z,9.75
2023-03-06T00:43:00.302Z,10.38
2023-03-06T00:45:27.116Z,10.02
2023-03-06T00:47:53.825Z,9.68
2023-03-06T00:50:20.547Z,11.00
2023-03-06T00:52:47.651Z,10.98
2023-03-06T00:55:14.558Z,10.20
2023-03-06T00:57:41.364Z,10.07
2023-03-06T01:00:09.964Z,10.07
2023-03-06T01:02:36.677Z,9.48
2023-03-06T01:05:03.724Z,11.27
2023-03-06T01:07:33.848Z,9.90
2023-03-06T01:10:00.828Z,10.15
2023-03-06T01:12:27.694Z,9.88
2023-03-06T01:14:54.426Z,10.27
2023-03-06T01:17:21.146Z,10.68
2023-03-06T01:19:47.852Z,10.35
2023-03-06T01:22:14.662Z,10.48
2023-03-06T01:24:41.352Z,10.43
2023-03-06T01:27:08.107Z,10.23
2023-03-06T01:29:34.823Z,11.27
2023-03-06T01:32:01.565Z,11.18
2023-03-06T01:34:28.586Z,12.20
2023-03-06T01:36:55.355Z,13.23
2023-03-06T01:39:22.104Z,12.93
2023-03-06T01:41:48.848Z,12.50
2023-03-06T01:44:15.577Z,12.93
2023-03-06T01:46:46.537Z,12.18
2023-03-06T01:49:20.745Z,13.60
2023-03-06T01:51:53.914Z,13.68
2023-03-06T01:54:40.654Z,13.68
2023-03-06T01:57:15.264Z,11.38
2023-03-06T01:59:44.084Z,13.00
2023-03-06T02:02:12.729Z,13.90
2023-03-06T02:04:42.235Z,11.95
2023-03-06T02:07:09.867Z,11.38
2023-03-06T02:09:38.891Z,12.60
2023-03-06T02:12:17.246Z,12.95
2023-03-06T02:14:43.996Z,12.35
2023-03-06T02:17:14.188Z,13.38
2023-03-06T02:20:13.090Z,12.88
2023-03-06T02:23:05.182Z,14.23
2023-03-06T02:25:39.064Z,13.77
2023-03-06T02:28:12.747Z,15.32
2023-03-06T02:30:41.177Z,14.13
2023-03-06T02:33:10.922Z,15.10
2023-03-06T02:35:39.475Z,13.55
2023-03-06T02:38:12.110Z,13.77
2023-03-06T02:40:39.396Z,14.57
2023-03-06T02:43:06.159Z,12.50
2023-03-06T02:45:44.294Z,13.93
2023-03-06T02:48:13.040Z,14.07
2023-03-06T02:50:41.446Z,14.20
2023-03-06T02:53:09.207Z,13.82
2023-03-06T02:55:36.328Z,11.65
2023-03-06T02:58:03.870Z,13.18
2023-03-06T03:00:32.717Z,12.63
2023-03-06T03:02:59.619Z,12.65
2023-03-06T03:05:26.577Z,13.82
2023-03-06T03:07:53.372Z,13.20
2023-03-06T03:10:20.474Z,15.13
2023-03-06T03:12:47.265Z,14.80
2023-03-06T03:15:14.149Z,15.77
2023-03-06T03:17:41.812Z,15.63
2023-03-06T03:20:13.501Z,14.93
2023-03-06T03:22:40.325Z,15.18
2023-03-06T03:25:08.035Z,14.43
2023-03-06T03:27:34.756Z,15.35
2023-03-06T03:30:01.555Z,16.58
2023-03-06T03:32:28.379Z,15.80
2023-03-06T03:34:56.263Z,16.90
2023-03-06T03:37:23.156Z,16.60
2023-03-06T03:39:49.914Z,16.08
2023-03-06T03:42:16.618Z,15.55
2023-03-06T03:44:43.362Z,16.90
2023-03-06T03:47:10.194Z,17.38
2023-03-06T03:49:37.136Z,17.42
2023-03-06T03:52:04.140Z,16.17
2023-03-06T03:54:30.869Z,16.60
2023-03-06T03:56:57.575Z,16.15
2023-03-06T03:59:24.482Z,15.45
2023-03-06T04:01:52.108Z,15.52
2023-03-06T04:04:18.862Z,15.85
2023-03-06T04:06:45.627Z,16.30
2023-03-06T04:09:12.366Z,15.43
2023-03-06T04:11:39.094Z,15.15
2023-03-06T04:14:08.122Z,16.05
2023-03-06T04:16:34.970Z,15.13
2023-03-06T04:19:01.736Z,15.98
2023-03-06T04:21:28.722Z,15.20
2023-03-06T04:23:55.490Z,16.17
2023-03-06T04:26:22.247Z,14.85
2023-03-06T04:28:49.005Z,13.35
2023-03-06T04:31:15.763Z,15.38
2023-03-06T04:33:42.505Z,14.25
2023-03-06T04:36:26.353Z,12.98
2023-03-06T04:38:53.167Z,13.27
2023-03-06T04:41:20.034Z,13.77
2023-03-06T04:43:46.783Z,13.10
2023-03-06T04:46:13.487Z,11.70
2023-03-06T04:48:40.501Z,12.25
2023-03-06T04:51:11.263Z,11.65
2023-03-06T04:53:40.839Z,11.50
2023-03-06T04:56:08.035Z,10.57
2023-03-06T04:58:34.742Z,10.65
2023-03-06T05:01:01.574Z,11.38
2023-03-06T05:03:28.353Z,10.55
2023-03-06T05:05:55.088Z,10.43
2023-03-06T05:08:23.635Z,11.48
2023-03-06T05:11:00.229Z,11.95
2023-03-06T05:13:27.562Z,12.10
2023-03-06T05:15:54.744Z,12.88
2023-03-06T05:18:21.841Z,11.23
2023-03-06T05:20:48.554Z,12.13
2023-03-06T05:23:15.307Z,11.68
2023-03-06T05:25:42.343Z,12.93
2023-03-06T05:28:09.067Z,11.23
2023-03-06T05:30:36.230Z,12.18
2023-03-06T05:33:03.016Z,11.52
2023-03-06T05:35:29.811Z,11.85
2023-03-06T05:37:56.782Z,11.15
2023-03-06T06:02:48.189Z,13.35
2023-03-06T06:05:15.076Z,11.35
2023-03-06T06:07:42.447Z,12.25
2023-03-06T06:10:11.135Z,11.30
2023-03-06T06:12:37.881Z,12.07
2023-03-06T06:15:06.427Z,12.30
2023-03-06T06:17:33.213Z,13.35
2023-03-06T06:20:00.037Z,13.73
2023-03-06T06:22:26.723Z,12.45
2023-03-06T06:24:53.420Z,13.07
2023-03-06T06:27:21.180Z,15.63
2023-03-06T06:29:52.244Z,15.27
2023-03-06T06:32:19.376Z,16.98
2023-03-06T06:34:46.137Z,16.52
2023-03-06T06:37:12.839Z,22.60
2023-03-06T06:39:40.109Z,21.95
2023-03-06T06:42:28.941Z,24.58
2023-03-06T06:44:55.169Z,23.20
2023-03-06T06:47:24.407Z,22.95
2023-03-06T06:49:53.679Z,27.58
2023-03-06T06:52:21.109Z,23.65
2023-03-06T06:54:47.964Z,23.13
2023-03-06T06:57:15.638Z,22.70
2023-03-06T06:59:42.649Z,21.58
2023-03-06T07:02:13.945Z,22.42
2023-03-06T07:04:52.290Z,21.80
2023-03-06T07:07:28.716Z,22.83
2023-03-06T07:09:55.950Z,20.70
2023-03-06T07:12:22.805Z,19.85
2023-03-06T07:14:49.555Z,25.25
2023-03-06T07:17:16.316Z,24.00
2023-03-06T07:19:43.029Z,20.85
2023-03-06T07:22:10.070Z,21.02
2023-03-06T07:24:36.829Z,21.40
2023-03-06T07:27:03.611Z,19.13
2023-03-06T07:29:32.732Z,23.48
2023-03-06T07:31:59.532Z,20.85
2023-03-06T07:34:26.281Z,21.38
2023-03-06T07:36:52.999Z,19.92
2023-03-06T07:39:20.828Z,21.80
2023-03-06T07:41:47.532Z,20.45
2023-03-06T07:44:14.251Z,20.92
2023-03-06T07:46:41.212Z,19.52
2023-03-06T07:49:07.968Z,21.13
2023-03-06T07:51:34.675Z,21.85
2023-03-06T07:54:01.387Z,21.20
2023-03-06T07:56:29.229Z,21.13
2023-03-06T07:58:57.041Z,22.17
2023-03-06T08:01:24.109Z,19.92
2023-03-06T08:03:51.464Z,23.40
2023-03-06T08:06:24.250Z,22.58
2023-03-06T08:08:53.938Z,22.05
2023-03-06T08:11:24.105Z,23.15
2023-03-06T08:13:52.823Z,22.63
2023-03-06T08:16:26.593Z,22.92
2023-03-06T08:18:53.836Z,22.20
2023-03-06T08:21:24.180Z,22.85
2023-03-06T08:23:51.422Z,22.88
2023-03-06T08:26:21.798Z,23.70
2023-03-06T08:28:50.968Z,21.55
2023-03-06T08:31:38.221Z,22.48
2023-03-06T08:34:15.469Z,22.70
2023-03-06T08:36:42.317Z,20.92
2023-03-06T08:39:09.264Z,23.35
2023-03-06T08:41:37.319Z,21.13
2023-03-06T08:44:05.447Z,21.75
2023-03-06T08:46:34.114Z,22.35
2023-03-06T08:49:01.124Z,19.88
2023-03-06T08:51:28.891Z,20.42
2023-03-06T08:53:57.343Z,21.15
2023-03-06T08:56:31.287Z,19.33
2023-03-06T08:59:00.897Z,19.90
2023-03-06T09:01:37.567Z,20.38
2023-03-06T09:04:09.181Z,20.80
2023-03-06T09:06:41.173Z,18.85
2023-03-06T09:09:08.689Z,21.05
2023-03-06T09:11:36.300Z,21.75
2023-03-06T09:14:03.759Z,21.67
2023-03-06T09:16:30.567Z,21.27
2023-03-06T09:18:58.611Z,20.33
2023-03-06T09:21:28.502Z,22.63
2023-03-06T09:23:55.343Z,19.85
2023-03-06T09:26:27.944Z,20.77
2023-03-06T09:28:59.705Z,20.63
2023-03-06T09:31:26.418Z,19.15
2023-03-06T09:33:53.118Z,19.70
2023-03-06T09:36:22.265Z,19.23
2023-03-06T09:38:49.736Z,19.02
2023-03-06T09:41:26.381Z,19.33
2023-03-06T09:44:04.705Z,17.63
2023-03-06T09:47:07.874Z,18.35
2023-03-06T09:49:53.150Z,18.05
2023-03-06T09:52:46.162Z,18.33
2023-03-06T09:55:19.160Z,19.38
2023-03-06T09:58:07.157Z,17.25
2023-03-06T10:01:05.738Z,17.60
2023-03-06T10:04:02.901Z,17.67
2023-03-06T10:06:49.417Z,16.77
2023-03-06T10:09:27.330Z,17.05
2023-03-06T10:12:01.203Z,17.15
2023-03-06T10:14:53.884Z,17.90
2023-03-06T10:17:26.153Z,16.90
2023-03-06T10:19:52.962Z,17.33
2023-03-06T10:22:28.126Z,18.80
2023-03-06T10:25:04.886Z,18.10
2023-03-06T10:27:48.360Z,19.83
2023-03-06T10:30:15.207Z,18.20
2023-03-06T10:33:07.425Z,19.73
2023-03-06T10:35:55.643Z,20.77
2023-03-06T10:38:30.831Z,19.15
2023-03-06T10:41:11.510Z,19.27
2023-03-06T10:44:05.674Z,18.83
2023-03-06T10:46:45.811Z,19.73
2023-03-06T10:49:33.548Z,19.65
2023-03-06T10:52:22.155Z,19.90
2023-03-06T10:54:49.239Z,18.90
2023-03-06T10:57:31.760Z,19.33
2023-03-06T11:00:04.556Z,19.23
2023-03-06T11:02:38.396Z,19.25
2023-03-06T11:05:10.605Z,18.80
2023-03-06T11:10:20.662Z,16.80
2023-03-06T11:13:04.579Z,15.38
2023-03-06T11:15:31.942Z,15.90
2023-03-06T11:18:04.293Z,15.90
2023-03-06T11:20:54.256Z,15.27
2023-03-06T11:23:47.091Z,15.98
2023-03-06T11:26:16.559Z,15.20
2023-03-06T11:29:01.401Z,14.93
2023-03-06T11:31:39.581Z,15.55
2023-03-06T11:34:27.291Z,14.40
2023-03-06T11:37:16.555Z,15.73
2023-03-06T11:40:11.326Z,14.60
2023-03-06T11:42:51.584Z,16.45
2023-03-06T11:45:46.641Z,17.20
2023-03-06T11:48:19.272Z,14.27
2023-03-06T11:50:59.449Z,16.38
2023-03-06T11:53:44.616Z,13.80
2023-03-06T11:56:19.568Z,14.40
2023-03-06T11:58:52.867Z,14.43
2023-03-06T12:01:33.600Z,14.68
2023-03-06T12:04:15.683Z,13.90
2023-03-06T12:06:52.814Z,14.65
2023-03-06T12:09:29.399Z,14.55
2023-03-06T12:12:08.813Z,16.48
2023-03-06T12:15:00.535Z,15.45
2023-03-06T12:17:56.096Z,14.00
2023-03-06T12:20:40.597Z,15.90
2023-03-06T12:23:44.766Z,15.65
2023-03-06T12:27:00.709Z,15.93
2023-03-06T12:30:04.716Z,17.15
2023-03-06T12:33:16.572Z,15.73
2023-03-06T12:36:04.411Z,16.35
2023-03-06T12:38:53.543Z,16.70
2023-03-06T12:41:41.605Z,17.08
2023-03-06T12:44:30.888Z,16.38
2023-03-06T12:47:03.652Z,15.95
2023-03-06T12:49:38.439Z,18.88
2023-03-06T12:52:08.220Z,16.48
2023-03-06T12:54:40.941Z,15.20
2023-03-06T12:57:09.298Z,15.80
2023-03-06T12:59:47.745Z,14.73
2023-03-06T13:02:51.961Z,15.48
2023-03-06T13:05:36.885Z,14.18
2023-03-06T13:08:23.091Z,14.45
2023-03-06T13:11:30.712Z,15.30
2023-03-06T13:13:57.567Z,15.95
2023-03-06T13:16:34.905Z,17.55
2023-03-06T13:19:11.562Z,16.98
2023-03-06T13:21:47.566Z,18.92
2023-03-06T13:24:22.306Z,17.42
2023-03-06T13:26:54.713Z,17.25
2023-03-06T13:29:36.746Z,18.42
2023-03-06T13:34:39.262Z,20.02
2023-03-06T13:37:23.003Z,19.35
2023-03-06T13:39:55.205Z,18.95
2023-03-06T13:45:27.366Z,16.23
2023-03-06T13:50:46.400Z,18.80
2023-03-06T13:53:42.002Z,18.33
2023-03-06T13:56:33.468Z,16.70
2023-03-06T13:59:52.226Z,16.48
2023-03-06T14:03:03.520Z,16.60
2023-03-06T14:05:46.424Z,15.20
2023-03-06T14:08:28.156Z,15.65
2023-03-06T14:11:03.966Z,16.33
2023-03-06T14:13:47.467Z,16.02
2023-03-06T14:16:23.608Z,16.10
2023-03-06T14:18:54.078Z,16.35
2023-03-06T14:21:31.909Z,15.93
2023-03-06T14:24:01.995Z,16.80
2023-03-06T14:26:43.456Z,15.48
2023-03-06T14:29:26.644Z,15.73
2023-03-06T14:32:01.675Z,15.57
2023-03-06T14:34:30.440Z,16.15
2023-03-06T14:37:02.435Z,16.15
2023-03-06T14:39:37.582Z,14.65
2023-03-06T14:42:24.666Z,15.25
2023-03-06T14:45:19.417Z,16.05
2023-03-06T14:47:53.738Z,14.77
2023-03-06T14:50:29.303Z,14.32
2023-03-06T14:53:10.491Z,12.73
2023-03-06T14:55:37.327Z,13.63
2023-03-06T14:58:44.966Z,13.52
2023-03-06T15:01:15.963Z,14.30
2023-03-06T15:03:53.222Z,14.00
2023-03-06T15:06:29.894Z,14.20
2023-03-06T15:09:13.815Z,13.93
2023-03-06T15:12:08.370Z,13.60
2023-03-06T15:14:39.302Z,14.05
2023-03-06T15:17:18.238Z,13.80
2023-03-06T15:19:48.424Z,13.23
2023-03-06T15:22:29.124Z,12.32
2023-03-06T15:25:29.867Z,13.15
2023-03-06T15:28:25.735Z,12.27
2023-03-06T15:31:08.644Z,10.90
2023-03-06T15:33:35.539Z,11.80
2023-03-06T15:36:27.471Z,11.43
2023-03-06T15:38:56.291Z,11.05
2023-03-06T15:41:36.778Z,11.45
2023-03-06T15:44:13.074Z,12.52
2023-03-06T15:46:39.812Z,12.18
2023-03-06T15:49:14.944Z,11.20
2023-03-06T15:51:41.645Z,12.48
2023-03-06T15:54:12.408Z,11.50
2023-03-06T15:56:42.609Z,11.13
2023-03-06T15:59:26.141Z,12.80
2023-03-06T16:01:53.756Z,12.00
2023-03-06T16:04:20.618Z,11.02
2023-03-06T16:06:47.407Z,11.63
2023-03-06T16:09:14.440Z,13.32
2023-03-06T16:11:44.719Z,11.98
2023-03-06T16:14:23.596Z,11.90
2023-03-06T16:16:56.159Z,11.43
2023-03-06T16:19:27.320Z,12.93
2023-03-06T16:21:56.263Z,11.98
2023-03-06T16:24:23.588Z,12.35
2023-03-06T16:26:53.362Z,11.32
2023-03-06T16:29:24.282Z,12.70
2023-03-06T16:31:55.084Z,12.10
2023-03-06T16:34:21.893Z,11.07
2023-03-06T16:36:49.679Z,12.48
2023-03-06T16:39:19.615Z,10.95
2023-03-06T16:41:47.013Z,14.02
2023-03-06T16:44:14.142Z,13.05
2023-03-06T16:46:47.576Z,12.70
2023-03-06T16:49:21.083Z,12.80
2023-03-06T16:51:48.453Z,12.00
2023-03-06T16:54:15.524Z,11.45
2023-03-06T16:56:42.536Z,12.18
2023-03-06T16:59:09.330Z,12.43
2023-03-06T17:01:36.711Z,11.65
2023-03-06T17:04:04.050Z,12.55
2023-03-06T17:06:31.792Z,11.82
2023-03-06T17:08:59.628Z,11.60
2023-03-06T17:11:27.127Z,12.50
2023-03-06T17:13:55.381Z,13.20
2023-03-06T17:16:22.290Z,12.68
2023-03-06T17:18:49.613Z,12.27
2023-03-06T17:21:16.401Z,10.73
2023-03-06T17:23:44.280Z,11.80
2023-03-06T17:26:20.410Z,11.07
2023-03-06T17:28:48.212Z,12.35
2023-03-06T17:31:25.194Z,11.63
2023-03-06T17:33:56.476Z,13.27
2023-03-06T17:36:23.235Z,11.23
2023-03-06T17:38:49.922Z,11.52
2023-03-06T17:41:16.911Z,11.10
2023-03-06T17:43:43.698Z,11.93
2023-03-06T17:46:12.780Z,14.02
2023-03-06T17:48:40.086Z,11.77
2023-03-06T17:51:07.834Z,11.10
2023-03-06T17:53:34.863Z,12.18
2023-03-06T17:56:07.964Z,12.20
2023-03-06T17:58:35.450Z,11.25
2023-03-06T18:01:21.944Z,12.20
2023-03-06T18:03:50.675Z,11.68
2023-03-06T18:06:18.907Z,11.55
2023-03-06T18:08:46.450Z,12.05
2023-03-06T18:11:13.906Z,11.95
2023-03-06T18:13:43.248Z,12.05
2023-03-06T18:16:13.316Z,12.63
2023-03-06T18:18:40.332Z,13.73
2023-03-06T18:21:13.844Z,13.75
2023-03-06T18:23:41.031Z,12.70
2023-03-06T18:26:20.046Z,12.95
2023-03-06T18:28:51.227Z,13.00
2023-03-06T18:31:27.838Z,13.25
2023-03-06T18:33:57.845Z,13.07
2023-03-06T18:36:28.313Z,13.57
2023-03-06T18:38:55.676Z,14.32
2023-03-06T18:41:23.094Z,13.48
2023-03-06T18:43:59.032Z,12.43
2023-03-06T18:46:33.242Z,13.18
2023-03-06T18:49:00.409Z,13.07
2023-03-06T18:51:27.459Z,12.63
2023-03-06T18:54:01.509Z,12.18
2023-03-06T18:56:28.451Z,12.50
2023-03-06T18:58:55.393Z,12.05
2023-03-06T19:01:22.867Z,11.65
2023-03-06T19:03:49.744Z,12.75
2023-03-06T19:06:17.412Z,11.82
2023-03-06T19:08:44.308Z,11.77
2023-03-06T19:11:16.207Z,13.32
2023-03-06T19:13:43.495Z,10.95
2023-03-06T19:16:22.397Z,12.35
2023-03-06T19:18:49.245Z,12.73
2023-03-06T19:21:21.963Z,12.30
2023-03-06T19:23:49.057Z,12.52
2023-03-06T19:26:18.519Z,13.38
2023-03-06T19:28:46.049Z,12.55
2023-03-06T19:31:19.500Z,12.95
2023-03-06T19:33:48.873Z,11.13
2023-03-06T19:36:17.172Z,12.20
2023-03-06T19:38:44.137Z,12.55
2023-03-06T19:41:13.721Z,12.50
2023-03-06T19:43:42.395Z,12.00
2023-03-06T19:46:13.690Z,12.52
2023-03-06T19:48:41.795Z,12.32
2023-03-06T19:51:09.499Z,12.52
2023-03-06T19:53:36.578Z,12.20
2023-03-06T19:56:13.329Z,12.48
2023-03-06T19:58:40.593Z,12.27
2023-03-06T20:01:14.325Z,12.57
2023-03-06T20:03:41.183Z,11.68
2023-03-06T20:06:13.433Z,12.05
2023-03-06T20:11:06.891Z,11.15
2023-03-06T20:13:33.616Z,12.65
2023-03-06T20:16:03.316Z,12.48
2023-03-06T20:18:30.054Z,13.02
2023-03-06T20:20:58.966Z,12.07
2023-03-06T20:23:26.322Z,12.45
2023-03-06T20:25:53.418Z,13.88
2023-03-06T20:28:20.329Z,13.18
2023-03-06T20:30:47.079Z,13.20
2023-03-06T20:33:15.252Z,13.02
2023-03-06T20:35:43.337Z,12.18
2023-03-06T20:38:10.987Z,12.38
2023-03-06T20:40:40.575Z,13.27
2023-03-06T20:43:07.699Z,12.68
2023-03-06T20:45:34.957Z,13.48
2023-03-06T20:48:01.778Z,12.73
2023-03-06T20:50:31.589Z,14.10
2023-03-06T20:53:00.901Z,13.23
2023-03-06T20:55:27.621Z,13.80
2023-03-06T20:57:54.479Z,14.23
2023-03-06T21:00:21.369Z,13.65
2023-03-06T21:02:48.205Z,14.05
2023-03-06T21:05:15.268Z,14.23
2023-03-06T21:07:42.056Z,13.57
2023-03-06T21:10:09.661Z,16.23
2023-03-06T21:12:36.401Z,14.65
2023-03-06T21:15:03.586Z,15.32
2023-03-06T21:17:30.359Z,14.30
2023-03-06T21:19:58.290Z,14.43
2023-03-06T21:22:25.387Z,12.90
2023-03-06T21:24:52.106Z,13.43
2023-03-06T21:27:18.906Z,14.85
2023-03-06T21:29:46.171Z,14.00
2023-03-06T21:32:13.011Z,14.20
2023-03-06T21:34:39.751Z,14.38
2023-03-06T21:37:06.639Z,14.15
2023-03-06T21:39:34.866Z,14.05
2023-03-06T21:42:01.746Z,13.23
2023-03-06T21:44:28.527Z,14.25
2023-03-06T21:46:55.354Z,13.82
2023-03-06T21:49:25.866Z,12.70
2023-03-06T21:51:53.524Z,13.23
2023-03-06T21:54:20.974Z,14.68
2023-03-06T21:56:47.835Z,13.90
2023-03-06T21:59:14.557Z,13.38
2023-03-06T22:01:42.557Z,13.55
2023-03-06T22:04:09.421Z,12.45
2023-03-06T22:06:40.246Z,12.52
2023-03-06T22:09:07.351Z,11.88
2023-03-06T22:11:37.276Z,12.38
2023-03-06T22:14:05.449Z,12.20
2023-03-06T22:16:32.752Z,12.25
2023-03-06T22:19:00.439Z,12.23
2023-03-06T22:21:27.362Z,11.52
2023-03-06T22:23:59.746Z,12.38
2023-03-06T22:26:29.449Z,11.20
2023-03-06T22:28:56.749Z,11.30
2023-03-06T22:31:26.641Z,11.80
2023-03-06T22:33:55.057Z,11.85
2023-03-06T22:36:22.543Z,11.07
2023-03-06T22:38:52.811Z,9.80
2023-03-06T22:41:20.800Z,10.95
2023-03-06T22:43:47.744Z,10.68
2023-03-06T22:46:17.590Z,10.25
2023-03-06T22:48:45.139Z,10.48
2023-03-06T22:51:15.619Z,10.05
2023-03-06T22:53:42.982Z,9.75
2023-03-06T22:56:17.356Z,9.43
2023-03-06T22:58:44.883Z,9.07
2023-03-06T23:01:16.820Z,9.32
2023-03-06T23:03:50.311Z,9.40
2023-03-06T23:06:21.535Z,9.55
2023-03-06T23:09:07.393Z,8.93
2023-03-06T23:11:34.928Z,9.38
2023-03-06T23:14:01.833Z,8.77
2023-03-06T23:16:28.707Z,9.32
2023-03-06T23:18:55.438Z,8.50
2023-03-06T23:21:22.832Z,9.10
2023-03-06T23:23:52.021Z,9.25
2023-03-06T23:26:22.418Z,9.07
2023-03-06T23:28:49.457Z,8.90
2023-03-06T23:31:19.930Z,8.77
2023-03-06T23:33:47.210Z,9.23
2023-03-06T23:36:16.720Z,9.23
2023-03-06T23:38:47.802Z,9.27
2023-03-06T23:41:18.025Z,7.50
2023-03-06T23:43:46.295Z,8.15
2023-03-06T23:46:13.766Z,8.20
2023-03-06T23:48:41.792Z,9.05
2023-03-06T23:51:18.073Z,8.07
2023-03-06T23:53:46.666Z,7.95
2023-03-06T23:56:14.052Z,7.55
2023-03-06T23:58:41.073Z,7.38
